Niagara, ND (58266)

1:29 PM CDT on July 24, 2014 (GMT -0500)
Grand Forks Air Force Base (KRDR) Elev 912 ft | 47.96 °N, 97.40 °W | Change Station

Current weather conditions updated 31 minutes ago

Partly Cloudy
Partly Cloudy
69 °F
Feels Like 69 °F
N
16
Wind Variable Wind from SE
Gusts 21 mph

Today is forecast to be Warmer than yesterday. Thunderstorms developing late tonight.

Today
High -- | Low -- °F
--% Chance of Precip.
Yesterday
High -- | Low -- °F
Precip. -- in
5:57 AM 9:17 PM
Waning Crescent, 4% visible
Pressure 29.90 in
Visibility 10.0 miles
Clouds Few 10000 ft
Dew Point 65 °F
Humidity 86%
Rainfall 0.00 in
Snow Depth Not available.
UV 9 out of 12
Pollen 7.40 out of 12
Air Quality Not available.
Flu Activity Not available.
METAR KRDR 241758Z AUTO 14014G18KT 10SM FEW100 21/18 A2989 RMK AO2 RAB1726E1738DZB1727E1741 PRESRR SLP125 P0000 60000 T02080183 10224 20154 58058

More Conditions Fewer Conditions

Pressure 29.90 in
Visibility 10.0 miles
Clouds Few 10000 ft
Dew Point 65 °F
Humidity 86%
Rainfall 0.00 in
Snow Depth Not available.
UV 9 out of 12
Pollen 7.40 out of 12
Air Quality Not available.
Flu Activity Not available.
METAR KRDR 241758Z AUTO 14014G18KT 10SM FEW100 21/18 A2989 RMK AO2 RAB1726E1738DZB1727E1741 PRESRR SLP125 P0000 60000 T02080183 10224 20154 58058

More Conditions Fewer Conditions

10-Day Weather Forecast

Almanac

Astronomy

Jul. 24, 2014 Rise Set
Actual Time 5:57 AM CDT 9:17 PM CDT
Civil Twilight 5:19 AM CDT 9:54 PM CDT
Nautical Twilight 4:30 AM CDT 10:44 PM CDT
Astronomical Twilight 3:25 AM CDT 11:47 PM CDT
Moon 4:08 AM CDT 7:30 PM CDT
Length of Visible Light 16h 34m
Length of Day
15h 19m
Tomorrow will be 2m 23s shorter.
Waning Crescent, 4% of the Moon is Illuminated
Today
Waning Crescent
Jul 26
New
Aug 3
First Quarter
Aug 10
Full
Aug 17
Last Quarter

Today's Extremes

State Highs State Lows

Community

WunderPhotos

Upload Photos

1,737,088 photos uploaded!

Nearby

Snow Depth

Station Depth Elevation
No new snow has been reported.

Earthquake Activity

City Distance Mag. Time & Date
No recent earthquake activity has been reported nearby.
Minimum magnitude displayed is 2.5.

Coastal Water Temperatures

Place Temperature
No Stations Reporting

Nearby Weather Stations

There are no personal weather stations in this area.